Time;durP1;ratioP1;P1;durP2;ratioP2;P2;SDS_P1;SDS_P2;PMS_P1;PMS_P2;Temp;Humidity;BMP_temperature;BMP_pressure;BME280_temperature;BME280_humidity;BME280_pressure;Samples;Min_cycle;Max_cycle;Signal;HPM_P1;HPM_P2
2023/01/10 00:00:33;;;;;;;27.73;6.93;;;9.90;99.90;;;9.90;76.87;101020.59;5093624;28;20047;-62
2023/01/10 00:03:05;;;;;;;29.63;6.85;;;9.90;99.90;;;9.90;76.92;101024.13;5093791;28;20040;-62
2023/01/10 00:05:33;;;;;;;22.25;6.97;;;9.90;99.90;;;10.08;76.92;101059.34;5093724;28;20139;-63
2023/01/10 00:08:02;;;;;;;27.05;7.03;;;10.00;99.90;;;9.92;77.03;101047.88;5093573;28;20051;-62
2023/01/10 00:10:31;;;;;;;29.80;6.85;;;9.90;99.90;;;10.12;77.14;101064.69;5075551;28;20501;-62
2023/01/10 00:15:46;;;;;;;27.80;6.75;;;9.90;99.90;;;10.11;76.88;101049.69;5093521;28;20039;-63
2023/01/10 00:18:16;;;;;;;25.83;7.18;;;10.00;99.90;;;9.88;77.02;101036.44;5093684;28;20040;-64
2023/01/10 00:20:45;;;;;;;31.33;7.82;;;10.00;99.90;;;10.09;77.22;101056.69;5093317;28;20135;-63
2023/01/10 00:23:22;;;;;;;23.10;6.40;;;10.00;99.90;;;9.99;77.57;101074.31;5093542;28;20040;-62
2023/01/10 00:25:50;;;;;;;30.42;7.18;;;9.90;99.90;;;10.10;77.56;101086.69;5093215;28;20036;-63
2023/01/10 00:28:19;;;;;;;27.80;7.43;;;9.90;99.90;;;9.96;77.47;101078.72;5093072;28;20044;-62
2023/01/10 00:30:56;;;;;;;31.23;7.13;;;9.90;99.90;;;9.95;77.31;101053.16;5092967;28;20048;-63
2023/01/10 00:33:28;;;;;;;29.38;7.82;;;10.00;99.90;;;10.27;77.17;101096.41;5075198;28;20044;-63
2023/01/10 00:35:57;;;;;;;25.05;6.97;;;10.10;99.90;;;10.21;76.94;101087.59;5093104;28;20044;-63
2023/01/10 00:38:25;;;;;;;25.90;7.40;;;10.10;99.90;;;10.09;76.93;101084.88;5093121;28;20055;-63
2023/01/10 00:40:54;;;;;;;29.35;7.75;;;10.00;99.90;;;10.04;77.24;101096.31;5093047;28;20048;-63
2023/01/10 00:46:09;;;;;;;28.80;8.00;;;10.00;99.90;;;9.05;77.07;100911.34;5093127;28;20040;-63
2023/01/10 00:48:39;;;;;;;32.40;7.32;;;10.00;99.90;;;10.21;77.37;101114.91;5092698;28;20040;-64
2023/01/10 00:51:08;;;;;;;37.17;7.82;;;10.00;99.90;;;10.22;77.34;101110.50;5093016;28;20052;-63
2023/01/10 00:53:36;;;;;;;33.95;8.13;;;10.10;99.90;;;10.16;77.43;101100.81;5092949;28;20482;-63
2023/01/10 00:56:06;;;;;;;23.88;7.60;;;10.10;99.90;;;10.26;77.04;101123.72;5092834;28;20047;-63
2023/01/10 00:58:34;;;;;;;23.00;7.85;;;10.10;99.90;;;10.27;77.18;101114.91;5092707;28;20130;-63
2023/01/10 01:01:02;;;;;;;30.42;7.25;;;10.10;99.90;;;10.29;77.20;101122.84;5092592;28;20050;-63
2023/01/10 01:03:31;;;;;;;23.13;6.72;;;10.10;99.90;;;10.29;76.78;101112.25;5092719;28;20044;-63
2023/01/10 01:06:05;;;;;;;26.42;7.50;;;10.10;99.90;;;10.20;76.94;101123.69;5092638;28;20048;-63
2023/01/10 01:08:34;;;;;;;29.58;7.50;;;10.10;99.90;;;10.15;77.22;101119.28;5092697;28;20032;-62
2023/01/10 01:11:02;;;;;;;24.55;6.95;;;10.00;99.90;;;10.18;77.32;101129.88;5092836;28;20462;-63
2023/01/10 01:13:31;;;;;;;27.05;8.00;;;10.00;99.90;;;10.33;77.04;101143.13;5092691;28;20036;-63
2023/01/10 01:16:00;;;;;;;28.83;7.93;;;10.10;99.90;;;10.40;77.11;101147.50;5092549;28;20055;-64
2023/01/10 01:18:28;;;;;;;32.40;7.57;;;10.20;99.90;;;10.21;76.88;101101.69;5092319;28;20048;-62
2023/01/10 01:21:02;;;;;;;27.05;7.63;;;10.30;99.90;;;10.48;77.01;101156.34;5092785;28;20056;-63
2023/01/10 01:23:33;;;;;;;30.40;7.38;;;10.30;99.90;;;10.34;76.43;101114.03;5092659;28;20056;-63
2023/01/10 01:26:01;;;;;;;;;;;10.30;99.90;;;10.27;77.11;101124.59;5093145;28;20447;-63
2023/01/10 01:28:30;;;;;;;30.40;7.25;;;10.20;99.90;;;10.35;77.20;101133.41;5093112;28;19971;-63
2023/01/10 01:30:58;;;;;;;32.28;7.90;;;10.20;99.90;;;10.31;77.39;101136.94;5092598;28;20124;-63
2023/01/10 01:33:26;;;;;;;36.72;8.52;;;10.20;99.90;;;10.39;77.18;101156.34;5092507;28;20492;-63
2023/01/10 01:35:55;;;;;;;34.78;8.30;;;10.20;99.90;;;10.31;76.87;101156.34;5092697;28;20124;-63
2023/01/10 01:38:25;;;;;;;39.38;8.77;;;10.10;99.90;;;10.26;77.10;101166.00;5093150;28;20046;-63
2023/01/10 01:40:53;;;;;;;25.50;7.70;;;10.10;99.90;;;10.32;77.68;101165.13;5074490;28;20040;-63
2023/01/10 01:43:25;;;;;;;31.13;8.18;;;10.10;99.90;;;10.12;77.26;101132.50;5092872;28;20036;-63
2023/01/10 01:45:55;;;;;;;30.00;8.43;;;10.10;99.90;;;10.28;77.33;101173.97;5075116;28;20052;-63
2023/01/10 01:48:38;;;;;;;35.63;8.23;;;10.10;99.90;;;10.30;77.43;101166.91;5092351;28;20054;-63
2023/01/10 01:51:10;;;;;;;29.20;8.32;;;10.10;99.90;;;10.26;77.28;101171.28;5092553;28;20048;-63
2023/01/10 01:53:46;;;;;;;34.35;8.35;;;10.10;99.90;;;10.01;77.44;101151.84;5092301;28;20521;-63
2023/01/10 01:56:19;;;;;;;37.55;8.52;;;10.10;99.90;;;10.30;77.38;101180.13;5092341;28;20120;-63
2023/01/10 01:58:54;;;;;;;29.70;8.57;;;10.10;99.90;;;10.34;77.33;101188.06;5092237;28;20044;-63
2023/01/10 02:01:23;;;;;;;31.33;8.20;;;10.10;99.90;;;10.33;77.14;101188.06;5092033;28;20490;-63
2023/01/10 02:03:57;;;;;;;38.58;8.77;;;10.20;99.90;;;10.42;77.40;101188.94;5092136;28;20028;-63
2023/01/10 02:06:26;;;;;;;29.25;8.00;;;10.20;99.90;;;10.38;77.04;101197.75;5095469;28;20140;-63
2023/01/10 02:09:05;;;;;;;33.03;7.40;;;10.20;99.90;;;10.30;77.22;101193.34;5095950;28;20494;-64
2023/01/10 02:11:33;;;;;;;38.00;8.43;;;10.20;99.90;;;10.19;76.88;101163.34;5096026;28;20040;-63
2023/01/10 02:14:05;;;;;;;26.60;7.22;;;10.20;99.90;;;10.44;77.21;101192.47;5077800;28;20036;-63
2023/01/10 02:16:33;;;;;;;33.85;8.05;;;10.30;99.90;;;10.38;77.03;101173.97;5095809;28;20067;-63
2023/01/10 02:19:02;;;;;;;35.33;7.93;;;10.30;99.90;;;10.43;76.94;101201.28;5095728;28;20062;-63
2023/01/10 02:21:59;;;;;;;28.67;7.82;;;10.30;99.90;;;10.40;77.42;101198.66;5095580;28;20051;-63
2023/01/10 02:24:54;;;;;;;30.05;8.60;;;10.20;99.90;;;10.36;77.34;101196.88;5095575;28;20078;-63
2023/01/10 02:27:27;;;;;;;30.75;7.75;;;10.20;99.90;;;10.42;77.05;101209.22;5095471;28;20559;-64
2023/01/10 02:30:57;;;;;;;35.17;7.68;;;10.20;99.90;;;10.43;77.07;101211.00;5095858;28;20048;-63
2023/01/10 02:33:31;;;;;;;35.42;8.00;;;10.20;99.90;;;10.38;77.48;101213.63;5085260;28;20068;-62
2023/01/10 02:36:25;;;;;;;30.13;8.35;;;10.20;99.90;;;10.37;77.31;101216.28;5095487;28;20052;-63
2023/01/10 02:39:04;;;;;;;25.75;7.55;;;10.20;99.90;;;10.36;77.26;101219.78;5095317;28;20055;-63
2023/01/10 02:41:41;;;;;;;33.85;8.20;;;10.20;99.90;;;10.34;77.67;101213.59;5095109;28;20040;-63
2023/01/10 02:44:18;;;;;;;31.00;7.30;;;10.10;99.90;;;10.16;78.07;101221.50;5095222;28;20047;-63
2023/01/10 02:46:48;;;;;;;27.60;7.97;;;10.00;99.90;;;10.22;77.84;101221.53;5095451;28;20511;-63
2023/01/10 02:49:18;;;;;;;38.85;8.63;;;10.10;99.90;;;10.17;78.44;101231.19;5095131;28;20036;-63
2023/01/10 02:51:47;;;;;;;32.45;7.78;;;10.00;99.90;;;9.98;78.25;101209.09;5095087;28;20044;-63
2023/01/10 02:54:20;;;;;;;34.58;8.48;;;10.00;99.90;;;10.10;78.73;101237.34;5095437;28;20470;-63
2023/01/10 02:57:30;;;;;;;41.00;8.43;;;10.00;99.90;;;10.08;79.36;101229.38;5094948;28;20050;-63
2023/01/10 03:00:12;;;;;;;38.17;8.10;;;9.90;99.90;;;10.08;79.13;101228.50;5090946;28;20113;-63
2023/01/10 03:03:00;;;;;;;28.27;8.10;;;9.90;99.90;;;9.98;79.20;101239.03;5094984;28;20127;-64
2023/01/10 03:05:48;;;;;;;33.58;8.48;;;9.90;99.90;;;9.89;79.85;101238.13;5094813;28;20151;-63
2023/01/10 03:08:28;;;;;;;32.80;7.80;;;9.80;99.90;;;9.88;79.47;101242.53;5094801;28;20042;-64
2023/01/10 03:11:00;;;;;;;36.05;8.50;;;9.70;99.90;;;8.12;79.42;100917.94;5094975;28;20393;-63
2023/01/10 03:13:35;;;;;;;32.30;8.02;;;9.80;99.90;;;10.00;79.21;101237.28;5094666;28;20044;-63
2023/01/10 03:16:08;;;;;;;32.20;7.93;;;9.80;99.90;;;9.86;79.01;101233.69;5094341;28;20044;-63
2023/01/10 03:18:43;;;;;;;28.15;7.93;;;9.80;99.90;;;9.85;79.29;101237.19;5094355;28;20490;-63
2023/01/10 03:21:19;;;;;;;34.75;8.10;;;9.80;99.90;;;9.71;79.33;101228.34;5094686;28;20048;-63
2023/01/10 03:23:49;;;;;;;32.22;7.93;;;9.70;99.90;;;9.63;79.35;101206.31;5094407;28;20097;-62
2023/01/10 03:26:27;;;;;;;40.58;9.40;;;9.70;99.90;;;9.92;79.59;101252.22;5094730;28;20173;-65
2023/01/10 03:29:01;;;;;;;31.95;7.97;;;9.70;99.90;;;9.95;79.52;101252.22;5094398;28;20040;-63
2023/01/10 03:31:36;;;;;;;35.85;8.00;;;9.80;99.90;;;9.81;79.69;101253.91;5094231;28;20438;-63
2023/01/10 03:34:05;;;;;;;28.17;8.27;;;9.70;99.90;;;9.86;79.89;101259.22;5094243;28;20046;-63
2023/01/10 03:36:41;;;;;;;34.70;9.05;;;9.70;99.90;;;9.71;80.50;101265.34;5094056;28;20082;-63
2023/01/10 03:39:19;;;;;;;29.73;7.57;;;9.60;99.90;;;9.85;80.57;101273.34;5094062;28;20079;-63
2023/01/10 03:41:54;;;;;;;37.60;8.50;;;9.70;99.90;;;9.89;80.48;101273.34;5094060;28;20462;-63
2023/01/10 03:44:43;;;;;;;36.95;8.35;;;9.70;99.90;;;9.65;80.24;101236.25;5093945;28;20091;-63
2023/01/10 03:47:19;;;;;;;38.75;8.00;;;9.70;99.90;;;9.86;80.05;101277.72;5093979;28;20047;-63
2023/01/10 03:49:50;;;;;;;41.15;8.73;;;9.70;99.90;;;9.83;79.94;101275.94;5094244;28;20086;-63
2023/01/10 03:52:21;;;;;;;30.95;8.70;;;9.70;99.90;;;9.72;80.01;101261.81;5094017;28;20074;-63
2023/01/10 03:54:50;;;;;;;;;;;9.70;99.90;;;9.80;80.48;101275.94;5094387;28;20093;-63
2023/01/10 03:57:21;;;;;;;41.17;8.02;;;9.70;99.90;;;9.71;80.46;101260.06;5093739;28;19931;-63
2023/01/10 03:59:53;;;;;;;36.53;9.05;;;9.70;99.90;;;9.54;80.90;101239.72;5094401;28;20075;-63
2023/01/10 04:02:21;;;;;;;31.35;8.38;;;9.60;99.90;;;9.74;81.57;101273.25;5093689;28;20044;-64
2023/01/10 04:04:50;;;;;;;41.08;9.20;;;9.60;99.90;;;9.71;80.92;101260.06;5093733;28;20051;-63
2023/01/10 04:07:19;;;;;;;38.17;10.07;;;9.60;99.90;;;9.75;81.21;101266.22;5075720;28;20052;-63
2023/01/10 04:09:48;;;;;;;38.28;8.77;;;9.60;99.90;;;9.31;81.15;101205.22;5093647;28;20127;-63
2023/01/10 04:12:16;;;;;;;35.67;8.90;;;9.60;99.90;;;9.66;81.84;101272.34;5093836;28;20036;-63
2023/01/10 04:14:45;;;;;;;38.42;8.77;;;9.50;99.90;;;9.55;81.57;101270.50;5093601;28;20374;-63
2023/01/10 04:17:16;;;;;;;32.10;8.05;;;9.60;99.90;;;9.81;81.95;101285.63;5093816;28;20039;-63
2023/01/10 04:19:45;;;;;;;;;;;9.60;99.90;;;9.80;81.44;101299.72;5094662;28;20134;-63
2023/01/10 04:22:13;;;;;;;39.28;8.98;;;9.70;99.90;;;9.89;81.56;101315.59;5075893;28;20412;-65
2023/01/10 04:24:45;;;;;;;40.97;9.48;;;9.70;99.90;;;9.97;81.18;101310.34;5093313;28;20048;-63
2023/01/10 04:27:14;;;;;;;36.03;9.00;;;9.80;99.90;;;9.83;81.82;101305.00;5092853;28;20052;-64
2023/01/10 04:29:42;;;;;;;36.75;9.55;;;9.70;99.90;;;9.85;81.56;101295.31;5093159;28;20044;-63
2023/01/10 04:32:11;;;;;;;32.80;8.60;;;9.70;99.90;;;9.90;81.43;101298.91;5093206;28;20052;-64
2023/01/10 04:34:39;;;;;;;37.50;9.00;;;9.70;99.90;;;9.98;80.95;101304.22;5093263;28;20036;-65
2023/01/10 04:37:08;;;;;;;27.55;7.80;;;9.80;99.90;;;9.94;81.56;101305.06;5093158;28;20046;-63
2023/01/10 04:39:36;;;;;;;37.00;8.38;;;9.80;99.90;;;9.93;81.09;101301.53;5093077;28;20036;-63
2023/01/10 04:42:06;;;;;;;36.95;8.55;;;9.80;99.90;;;10.05;80.59;101332.44;5093254;28;20539;-63
2023/01/10 04:44:34;;;;;;;44.65;8.95;;;9.90;99.90;;;10.09;80.49;101328.94;5092897;28;20044;-63
2023/01/10 04:47:03;;;;;;;37.55;9.73;;;9.90;99.90;;;10.06;80.38;101342.13;5093341;28;20389;-63
2023/01/10 04:49:31;;;;;;;33.65;8.18;;;9.90;99.90;;;10.09;80.31;101338.59;5093225;28;20123;-63
2023/01/10 04:52:00;;;;;;;34.72;9.75;;;9.90;99.90;;;10.16;80.16;101344.00;5093131;28;20397;-63
2023/01/10 04:54:28;;;;;;;37.83;8.02;;;10.00;99.90;;;10.16;80.04;101343.09;5092946;28;20067;-63
2023/01/10 04:56:56;;;;;;;32.60;8.30;;;10.00;99.90;;;10.20;80.13;101353.69;5092781;28;20572;-64
2023/01/10 04:59:26;;;;;;;39.95;8.93;;;10.00;99.90;;;10.17;80.16;101355.44;5092776;28;20040;-63
2023/01/10 05:01:56;;;;;;;37.17;9.30;;;10.00;99.90;;;10.17;80.32;101350.13;5092951;28;20044;-63
2023/01/10 05:04:25;;;;;;;;;;;10.00;99.90;;;10.23;80.28;101345.78;5093336;28;20040;-63
2023/01/10 05:06:53;;;;;;;31.50;8.45;;;10.00;99.90;;;10.19;80.39;101353.69;5092921;28;19920;-63
2023/01/10 05:09:21;;;;;;;30.33;8.25;;;10.00;99.90;;;9.84;79.93;101314.72;5092543;28;20048;-63
2023/01/10 05:11:50;;;;;;;34.75;8.77;;;9.90;99.90;;;10.18;80.11;101357.22;5092565;28;20036;-63
2023/01/10 05:14:18;;;;;;;32.35;8.57;;;9.90;99.90;;;10.23;80.13;101351.06;5092379;28;20044;-63
2023/01/10 05:16:48;;;;;;;29.13;8.45;;;10.00;99.90;;;10.32;79.77;101360.78;5092734;28;20396;-63
2023/01/10 05:19:16;;;;;;;37.53;8.27;;;10.00;99.90;;;10.29;79.40;101371.34;5092417;28;20105;-63
2023/01/10 05:21:44;;;;;;;32.08;8.48;;;10.00;99.90;;;10.24;79.16;101362.53;5092718;28;20048;-63
2023/01/10 05:24:13;;;;;;;34.03;8.55;;;10.00;99.90;;;10.24;79.10;101376.59;5092395;28;20040;-63
2023/01/10 05:26:41;;;;;;;37.72;9.43;;;10.00;99.90;;;10.03;79.24;101353.56;5092363;28;20405;-63
2023/01/10 05:29:11;;;;;;;39.40;8.73;;;9.90;99.90;;;10.24;79.22;101378.41;5092322;28;20066;-63
2023/01/10 05:31:39;;;;;;;33.30;8.90;;;10.00;99.90;;;10.26;79.08;101377.50;5092632;28;20048;-64
2023/01/10 05:34:12;;;;;;;38.17;9.50;;;9.90;99.90;;;10.29;79.34;101388.09;5092538;28;20043;-63
2023/01/10 05:36:41;;;;;;;27.83;8.23;;;10.00;99.90;;;10.32;78.77;101393.41;5092235;28;20405;-63
2023/01/10 05:39:09;;;;;;;33.22;8.80;;;10.00;99.90;;;10.33;78.48;101392.53;5093600;28;20047;-63
2023/01/10 05:41:37;;;;;;;29.77;8.52;;;10.00;99.90;;;10.29;78.36;101384.56;5096409;28;20119;-63
2023/01/10 05:44:06;;;;;;;32.15;8.30;;;10.00;99.90;;;10.31;78.64;101401.34;5096498;28;20047;-63
2023/01/10 05:46:35;;;;;;;31.98;7.63;;;10.00;99.90;;;10.27;78.40;101408.38;5096570;28;20595;-63
2023/01/10 05:49:03;;;;;;;30.48;8.63;;;10.00;99.90;;;9.96;78.39;101362.34;5096540;28;20044;-63
2023/01/10 05:51:33;;;;;;;32.60;9.00;;;9.90;99.90;;;10.20;78.69;101403.03;5096140;28;20040;-63
2023/01/10 05:54:02;;;;;;;29.40;7.93;;;9.90;99.90;;;10.19;78.62;101394.22;5096249;28;20401;-64
2023/01/10 05:56:30;;;;;;;30.70;7.68;;;9.90;99.90;;;10.19;78.68;101406.53;5096050;28;20639;-63
2023/01/10 05:58:58;;;;;;;28.05;8.35;;;9.90;99.90;;;10.17;79.13;101406.53;5096025;28;20469;-63
2023/01/10 06:01:38;;;;;;;33.85;7.75;;;9.90;99.90;;;10.17;79.14;101410.94;5096656;28;20074;-63
2023/01/10 06:04:07;;;;;;;26.58;7.63;;;9.90;99.90;;;10.09;79.51;101402.94;5095813;28;20370;-63
2023/01/10 06:06:36;;;;;;;35.40;9.30;;;9.80;99.90;;;10.11;79.53;101393.28;5096119;28;20040;-63
2023/01/10 06:09:05;;;;;;;33.05;7.68;;;9.80;99.90;;;10.06;80.02;101394.09;5095795;28;20043;-63
2023/01/10 06:11:36;;;;;;;33.65;8.55;;;9.80;99.90;;;10.05;79.83;101390.56;5077738;28;20493;-63
2023/01/10 06:14:06;;;;;;;30.58;7.88;;;9.80;99.90;;;10.04;79.71;101402.91;5095771;28;20401;-63
2023/01/10 06:16:35;;;;;;;33.25;8.35;;;9.70;99.90;;;10.00;80.20;101403.78;5095782;28;20383;-63
2023/01/10 06:19:03;;;;;;;33.58;8.73;;;9.70;99.90;;;10.01;80.04;101413.47;5095488;28;20067;-63
2023/01/10 06:21:32;;;;;;;30.60;8.50;;;9.70;99.90;;;10.00;80.03;101408.16;5096155;28;20038;-63
2023/01/10 06:24:01;;;;;;;33.88;8.38;;;9.70;99.90;;;9.81;80.01;101390.44;5095448;28;20127;-64
2023/01/10 06:26:30;;;;;;;32.93;8.57;;;9.60;99.90;;;9.90;79.99;101420.44;5095457;28;20052;-63
2023/01/10 06:28:58;;;;;;;26.52;7.38;;;9.60;99.90;;;9.68;80.32;101385.91;5095397;28;20055;-63
2023/01/10 06:31:27;;;;;;;34.10;8.13;;;9.60;99.90;;;9.87;80.83;101419.53;5095346;28;20040;-63
2023/01/10 06:33:56;;;;;;;29.30;8.32;;;9.50;99.90;;;9.91;80.59;101421.34;5095353;28;20040;-63
2023/01/10 06:36:24;;;;;;;39.25;8.05;;;9.60;99.90;;;9.92;80.90;101439.84;5077374;28;20107;-63
2023/01/10 06:38:52;;;;;;;36.25;8.68;;;9.60;99.90;;;9.93;81.05;101430.13;5077408;28;20362;-64
2023/01/10 06:41:22;;;;;;;30.63;9.07;;;9.60;99.90;;;9.92;81.41;101436.28;5077261;28;20055;-64
2023/01/10 06:43:50;;;;;;;36.33;8.57;;;9.60;99.90;;;9.94;81.73;101445.13;5094972;28;20050;-64
2023/01/10 06:46:20;;;;;;;30.55;8.68;;;9.60;99.90;;;9.92;82.53;101447.75;5095203;28;20123;-63
2023/01/10 06:48:50;;;;;;;33.20;8.55;;;9.60;99.90;;;9.88;82.84;101458.28;5095184;28;20409;-63
2023/01/10 06:51:19;;;;;;;34.13;9.70;;;9.60;99.90;;;9.95;83.53;101460.97;5094522;28;20040;-63
2023/01/10 06:53:48;;;;;;;37.22;9.45;;;9.70;99.90;;;9.89;83.88;101482.06;5095107;28;20036;-63
2023/01/10 06:56:16;;;;;;;35.40;9.48;;;9.70;99.90;;;9.91;84.51;101475.03;5095077;28;20127;-64
2023/01/10 06:58:48;;;;;;;37.38;9.25;;;9.70;99.90;;;9.92;84.39;101470.66;5077026;28;20477;-63
2023/01/10 07:01:19;;;;;;;37.53;9.23;;;9.70;99.90;;;9.81;84.76;101452.06;5095094;28;20048;-64
2023/01/10 07:03:48;;;;;;;33.60;8.52;;;9.70;99.90;;;9.94;84.55;101477.72;5094919;28;20489;-64
2023/01/10 07:06:17;;;;;;;42.40;10.57;;;9.70;99.90;;;9.91;84.66;101480.31;5094836;28;20036;-63
2023/01/10 07:08:47;;;;;;;35.88;8.10;;;9.70;99.90;;;9.85;85.06;101477.63;5095129;28;20064;-63
2023/01/10 07:11:16;;;;;;;37.95;8.82;;;9.60;99.90;;;9.78;84.73;101488.13;5094694;28;20109;-63
2023/01/10 07:13:46;;;;;;;32.88;9.15;;;9.60;99.90;;;9.86;84.92;101494.38;5094597;28;20043;-63
2023/01/10 07:16:16;;;;;;;33.42;8.45;;;9.60;99.90;;;9.86;85.02;101492.63;5095754;28;20046;-63
2023/01/10 07:18:45;;;;;;;36.75;9.77;;;9.60;99.90;;;7.46;84.59;101093.75;5094952;28;20391;-64
2023/01/10 07:21:14;;;;;;;42.22;9.65;;;9.60;99.90;;;9.80;84.79;101507.53;5094945;28;20044;-64
2023/01/10 07:23:42;;;;;;;35.42;10.15;;;9.60;99.90;;;9.61;84.65;101485.34;5095270;28;20048;-63
2023/01/10 07:26:16;;;;;;;36.85;9.45;;;9.50;99.90;;;9.67;84.69;101509.19;5094509;28;20044;-63
2023/01/10 07:28:49;;;;;;;32.85;9.00;;;9.50;99.90;;;9.61;84.93;101522.34;5093534;28;20069;-64
2023/01/10 07:31:19;;;;;;;34.20;9.73;;;9.40;99.90;;;9.63;84.76;101510.03;5094366;28;20062;-63
2023/01/10 07:33:48;;;;;;;36.13;8.48;;;9.40;99.90;;;9.51;85.09;101498.44;5094612;28;20047;-63
2023/01/10 07:36:16;;;;;;;36.55;10.75;;;9.40;99.90;;;9.39;85.33;101516.81;5076297;28;20056;-62
2023/01/10 07:38:45;;;;;;;41.95;10.93;;;9.20;99.90;;;9.26;85.85;101513.16;5093967;28;20028;-61
2023/01/10 07:41:14;;;;;;;41.78;11.05;;;9.10;99.90;;;9.16;85.95;101513.00;5094095;28;20048;-61
2023/01/10 07:43:42;;;;;;;41.97;10.88;;;9.00;99.90;;;9.17;86.28;101510.41;5094192;28;20153;-61
2023/01/10 07:46:12;;;;;;;41.88;9.88;;;8.90;99.90;;;9.09;86.15;101514.72;5093629;28;20040;-63
2023/01/10 07:48:41;;;;;;;42.50;10.10;;;8.90;99.90;;;9.03;86.17;101504.97;5094709;28;20062;-61
2023/01/10 07:51:09;;;;;;;33.95;9.93;;;8.80;99.90;;;9.10;86.21;101504.16;5094453;28;20482;-62
2023/01/10 07:53:38;;;;;;;41.38;10.73;;;8.80;99.90;;;9.06;85.89;101509.38;5075888;28;20482;-61
2023/01/10 07:56:07;;;;;;;34.35;9.32;;;8.80;99.90;;;8.99;86.38;101507.56;5094042;28;20091;-61
2023/01/10 07:58:36;;;;;;;36.38;9.52;;;8.80;99.90;;;8.95;86.12;101501.34;5093999;28;20056;-61
2023/01/10 08:01:06;;;;;;;38.88;9.13;;;8.70;99.90;;;8.98;86.37;101503.16;5093751;28;20119;-61
2023/01/10 08:03:36;;;;;;;36.25;9.25;;;8.70;99.90;;;8.93;86.32;101507.47;5093589;28;20070;-61
2023/01/10 08:06:09;;;;;;;33.10;9.52;;;8.70;99.90;;;8.93;86.08;101507.47;5093516;28;20527;-60
2023/01/10 08:08:38;;;;;;;38.38;9.68;;;8.80;99.90;;;9.13;85.59;101520.91;5093626;28;20474;-61
2023/01/10 08:11:07;;;;;;;35.75;9.23;;;8.80;99.90;;;9.18;85.94;101525.38;5075575;28;20075;-61
2023/01/10 08:13:35;;;;;;;36.88;9.30;;;8.90;99.90;;;9.24;85.39;101522.81;5094143;28;20068;-62
2023/01/10 08:16:07;;;;;;;36.88;9.43;;;9.00;99.90;;;7.43;85.17;101193.72;5093801;28;20086;-61
2023/01/10 08:18:41;;;;;;;36.38;9.52;;;9.10;99.90;;;9.35;85.17;101513.25;5093655;28;20055;-62
2023/01/10 08:21:10;;;;;;;37.15;9.60;;;9.10;99.90;;;9.44;84.43;101523.91;5093686;28;20044;-63
2023/01/10 08:23:38;;;;;;;37.72;8.52;;;9.20;99.90;;;9.38;84.29;101523.84;5093340;28;20042;-62
2023/01/10 08:26:07;;;;;;;36.78;9.13;;;9.20;99.90;;;9.14;84.51;101491.88;5093105;28;20044;-63
2023/01/10 08:28:35;;;;;;;34.85;8.68;;;9.10;99.90;;;9.33;84.21;101508.84;5093080;28;20040;-62
2023/01/10 08:31:08;;;;;;;39.83;9.48;;;9.10;99.90;;;9.29;84.74;101513.16;5075140;28;20463;-61
2023/01/10 08:33:39;;;;;;;31.38;8.18;;;9.10;99.90;;;9.29;84.30;101518.44;5093474;28;20044;-62
2023/01/10 08:36:16;;;;;;;30.40;8.98;;;9.10;99.90;;;9.23;84.65;101513.13;5093041;28;20101;-61
2023/01/10 08:38:45;;;;;;;31.00;9.13;;;9.10;99.90;;;8.99;84.70;101474.16;5093133;28;20040;-61
2023/01/10 08:41:14;;;;;;;38.35;8.77;;;9.00;99.90;;;9.19;84.88;101508.69;5091998;28;20439;-62
2023/01/10 08:43:42;;;;;;;33.00;8.68;;;9.00;99.90;;;9.19;84.89;101505.16;5093268;28;20048;-62
2023/01/10 08:46:11;;;;;;;41.95;9.02;;;9.00;99.90;;;9.16;85.00;101499.81;5093204;28;20036;-62
2023/01/10 08:48:41;;;;;;;44.88;9.45;;;9.00;99.90;;;9.12;84.83;101506.81;5093161;28;20048;-62
2023/01/10 08:51:10;;;;;;;38.13;9.43;;;8.90;99.90;;;9.02;85.00;101478.53;5092869;28;20043;-61
2023/01/10 08:53:40;;;;;;;39.08;9.52;;;8.90;99.90;;;9.07;85.13;101500.63;5092759;28;20036;-60
2023/01/10 08:56:09;;;;;;;42.25;9.55;;;8.90;99.90;;;9.01;85.76;101488.25;5092815;28;20494;-62
2023/01/10 08:58:37;;;;;;;38.47;9.18;;;8.90;99.90;;;9.00;86.06;101490.88;5092960;28;20466;-62
2023/01/10 09:01:08;;;;;;;35.85;9.95;;;8.80;99.90;;;8.81;86.42;101460.72;5092530;28;20119;-61
2023/01/10 09:03:36;;;;;;;37.92;9.45;;;8.70;99.90;;;8.99;86.04;101481.16;5092953;28;20138;-61
2023/01/10 09:06:07;;;;;;;35.97;8.45;;;8.80;99.90;;;8.96;86.33;101475.88;5092503;28;20089;-61
2023/01/10 09:08:36;;;;;;;40.60;9.40;;;8.70;99.90;;;6.64;86.22;101067.22;5074652;28;20457;-60
2023/01/10 09:11:05;;;;;;;37.42;9.15;;;8.80;99.90;;;8.92;86.44;101468.78;5092539;28;20127;-61
2023/01/10 09:13:35;;;;;;;47.05;11.70;;;8.70;99.90;;;8.95;87.13;101487.28;5092358;28;20066;-61
2023/01/10 09:16:04;;;;;;;29.98;9.02;;;8.70;99.90;;;8.90;87.11;101475.78;5092451;28;20374;-61
2023/01/10 09:18:32;;;;;;;38.33;9.23;;;8.70;99.90;;;8.90;87.09;101479.28;5092582;28;20503;-61
2023/01/10 09:21:02;;;;;;;31.60;8.70;;;8.80;99.90;;;8.87;87.01;101481.00;5092636;28;20401;-60
2023/01/10 09:23:32;;;;;;;35.40;8.80;;;8.70;99.90;;;8.91;86.93;101467.00;5092713;28;20040;-61
2023/01/10 09:26:04;;;;;;;33.90;7.90;;;8.70;99.90;;;8.90;86.89;101476.66;5092721;28;20650;-61
2023/01/10 09:28:33;;;;;;;34.47;9.10;;;8.70;99.90;;;8.56;86.65;101431.38;5092686;28;20072;-61
2023/01/10 09:31:03;;;;;;;34.75;9.25;;;8.70;99.90;;;8.52;87.12;101453.31;5092193;28;20127;-61
2023/01/10 09:33:31;;;;;;;40.50;9.05;;;8.60;99.90;;;8.66;87.23;101483.38;5092509;28;20048;-61
2023/01/10 09:36:14;;;;;;;42.63;8.30;;;8.60;99.90;;;8.69;87.49;101480.81;5074517;28;20101;-61
2023/01/10 09:38:44;;;;;;;32.85;7.85;;;8.50;99.90;;;8.51;86.85;101457.72;5092508;28;20394;-61
2023/01/10 09:41:33;;;;;;;49.88;10.60;;;8.60;99.90;;;8.71;87.79;101502.81;5092637;28;20048;-61
2023/01/10 09:44:05;;;;;;;38.72;9.13;;;8.60;99.90;;;8.58;87.43;101498.22;5092539;28;20461;-61
2023/01/10 09:46:45;;;;;;;39.33;9.77;;;8.50;99.90;;;8.47;88.04;101495.44;5092119;28;20401;-61
2023/01/10 09:49:33;;;;;;;50.22;10.90;;;8.40;99.90;;;8.51;88.30;101486.72;5092231;28;20478;-61
2023/01/10 09:52:07;;;;;;;36.38;9.60;;;8.40;99.90;;;8.51;87.82;101485.81;5092145;28;20498;-61
2023/01/10 09:54:41;;;;;;;41.80;10.60;;;8.40;99.90;;;8.48;87.88;101477.88;5092248;28;20516;-60
2023/01/10 09:57:17;;;;;;;29.83;9.27;;;8.40;99.90;;;8.52;87.93;101479.66;5092391;28;20047;-61
2023/01/10 09:59:49;;;;;;;38.28;8.88;;;8.40;99.90;;;8.45;88.28;101484.00;5092385;28;20052;-61
2023/01/10 10:02:28;;;;;;;39.17;9.63;;;8.30;99.90;;;8.39;88.05;101477.72;5092625;28;20036;-63
2023/01/10 10:05:12;;;;;;;37.78;9.55;;;8.30;99.90;;;8.38;88.01;101468.06;5092583;28;20044;-60
2023/01/10 10:07:40;;;;;;;30.05;8.75;;;8.30;99.90;;;8.45;87.97;101488.38;5092504;28;20055;-61
2023/01/10 10:10:25;;;;;;;40.22;9.93;;;8.30;99.90;;;8.39;87.57;101477.72;5092270;28;20047;-62
2023/01/10 10:13:12;;;;;;;32.60;9.45;;;8.30;99.90;;;8.33;87.32;101469.72;5092450;28;20047;-60
2023/01/10 10:16:07;;;;;;;37.45;9.38;;;8.20;99.90;;;8.21;87.67;101462.50;5092361;28;20056;-60
2023/01/10 10:18:49;;;;;;;30.55;8.85;;;8.20;99.90;;;8.32;87.74;101475.88;5091959;28;20083;-60
2023/01/10 10:21:27;;;;;;;43.58;10.02;;;8.20;99.90;;;8.25;87.74;101464.34;5092525;28;20481;-60
2023/01/10 10:24:29;;;;;;;36.90;9.02;;;8.20;99.90;;;8.27;88.02;101456.47;5092208;28;20490;-60
2023/01/10 10:27:07;;;;;;;42.70;9.60;;;8.20;99.90;;;8.28;87.97;101455.63;5094670;28;20058;-61
2023/01/10 10:30:01;;;;;;;40.70;10.10;;;8.20;99.90;;;8.29;87.89;101452.09;5095785;28;20040;-61
2023/01/10 10:32:45;;;;;;;37.05;10.10;;;8.20;99.90;;;8.29;87.53;101441.56;5095816;28;20040;-60
2023/01/10 10:35:21;;;;;;;38.55;9.95;;;8.10;99.90;;;8.28;87.56;101439.81;5095911;28;20138;-60
2023/01/10 10:37:52;;;;;;;40.63;9.95;;;8.20;99.90;;;8.21;87.79;101429.13;5077852;28;20047;-60
2023/01/10 10:40:24;;;;;;;41.60;9.90;;;8.10;99.90;;;8.20;87.71;101427.38;5095662;28;20123;-61